Bryceville, Florida
Current Conditions -  °F | °C
As of 2:50 PM on Thursday 27 Nov 2014 (Local Time) from KVQQ Reporting Station
Clear Clear  
Wind Chill: 61°   Ceiling: Unl
Heat Index: 61°   Visibility: 10mi
Dew Point: 32°   Wind: 18mph
Humidity: 34%   Direction: 300°WNW
Pressure: 30.2"   Gusts: 29mph
Location:  30.39°N, 81.94°W
Report Text: KVQQ 271950Z 30016G25KT 10SM CLR 16/00 A3020
Loading
Personal Weather Stations






























Interactive Weather Map New forecast layout! Learn more

10-Day Weather Forecast

Advertisements
Track Severe Weather on mobile